Aviation Digital Data Service (ADDS)

Output produced by METARs form (1045 UTC 19 February 2019)
found at http://www.aviationweather.gov/metar/data/
 
Forecast for: OPLA (LAHORE (CIV/MIL), PK)
Text: TAF OPLA 190945Z 1912/2021 13008KT 4000 FU SCT040 SCT100
Forecast period: 1200 UTC 19 February 2019 to 2100 UTC 20 February 2019
Forecast type: FROM: standard forecast or significant change
Winds: from the SE (130 degrees) at 9 MPH (8 knots; 4.1 m/s)
Visibility: 2.49 miles (4.01 km)
Ceiling: at least 12,000 feet AGL
Clouds: scattered clouds at 4000 feet AGL
scattered clouds at 10000 feet AGL
Weather: FU  (smoke)
Text: TEMPO 1919/1921 05010G25KT 1500 TSRA FEW030CB SC040 BKN100
Forecast period: 1900 to 2100 UTC 19 February 2019
Forecast type: TEMPORARY: The following changes expected for less than half the time period
Winds: from the NE (50 degrees) at 12 MPH (10 knots; 5.1 m/s)
gusting to 29 MPH (25 knots; 12.9 m/s)
Visibility: 0.93 miles (1.50 km)
Ceiling: 10000 feet AGL
Clouds: few clouds at 3000 feet AGL
broken clouds at 10000 feet AGL
Weather: TSRA  (rain associated with thunderstorm(s))